Time;durP1;ratioP1;P1;durP2;ratioP2;P2;SDS_P1;SDS_P2;PMS_P1;PMS_P2;Temp;Humidity;BMP_temperature;BMP_pressure;BME280_temperature;BME280_humidity;BME280_pressure;Samples;Min_cycle;Max_cycle;Signal;HPM_P1;HPM_P2
2022/08/22 00:01:24;;;;;;;1.40;1.30;;;23.30;56.10;;;;;;5052072;28;20171;-61
2022/08/22 00:04:21;;;;;;;2.13;1.55;;;23.30;56.10;;;;;;5053618;28;20199;-61
2022/08/22 00:07:25;;;;;;;2.55;1.38;;;23.30;56.10;;;;;;5052568;28;20213;-61
2022/08/22 00:09:57;;;;;;;3.65;1.63;;;23.30;56.10;;;;;;5053131;28;20210;-61
2022/08/22 00:12:36;;;;;;;2.38;1.35;;;23.30;56.10;;;;;;5053363;28;20668;-61
2022/08/22 00:15:09;;;;;;;2.70;1.80;;;23.30;56.20;;;;;;5051524;28;20194;-61
2022/08/22 00:17:40;;;;;;;4.68;1.60;;;23.30;56.20;;;;;;5053321;28;20659;-61
2022/08/22 00:20:12;;;;;;;2.17;1.52;;;23.30;56.20;;;;;;5051875;28;20191;-61
2022/08/22 00:22:57;;;;;;;1.80;1.65;;;23.30;56.30;;;;;;5051492;28;20246;-61
2022/08/22 00:26:05;;;;;;;2.97;1.70;;;23.30;56.20;;;;;;5052207;28;20175;-61
2022/08/22 00:28:49;;;;;;;2.83;1.77;;;23.30;56.30;;;;;;5051067;28;20175;-61
2022/08/22 00:31:20;;;;;;;2.08;1.10;;;23.30;56.20;;;;;;5052211;28;20238;-60
2022/08/22 00:34:09;;;;;;;2.10;1.20;;;23.30;56.30;;;;;;5053100;28;20175;-61
2022/08/22 00:36:39;;;;;;;2.60;1.70;;;23.30;56.30;;;;;;5052356;28;20183;-61
2022/08/22 00:39:25;;;;;;;2.10;1.55;;;23.30;56.30;;;;;;5051679;28;20179;-61
2022/08/22 00:42:10;;;;;;;2.22;1.40;;;23.30;56.30;;;;;;5051213;28;20179;-61
2022/08/22 00:45:08;;;;;;;2.15;1.75;;;23.30;56.30;;;;;;5051848;28;20240;-61
2022/08/22 00:47:36;;;;;;;3.00;1.40;;;23.30;56.40;;;;;;5051843;28;20182;-61
2022/08/22 00:50:06;;;;;;;3.05;1.40;;;23.20;56.30;;;;;;5052374;28;20225;-62
2022/08/22 00:53:03;;;;;;;2.70;1.60;;;23.20;56.40;;;;;;5051796;28;20198;-61
2022/08/22 00:55:49;;;;;;;2.42;1.80;;;23.20;56.40;;;;;;5052920;28;20171;-60
2022/08/22 00:58:33;;;;;;;2.38;1.48;;;23.20;56.40;;;;;;5051853;28;20261;-61
2022/08/22 01:01:17;;;;;;;2.03;1.55;;;23.20;56.50;;;;;;5052797;28;20258;-61
2022/08/22 01:03:43;;;;;;;2.08;1.50;;;23.20;56.50;;;;;;5050973;28;20207;-61
2022/08/22 01:06:40;;;;;;;2.90;1.60;;;23.20;56.50;;;;;;5052717;28;20202;-61
2022/08/22 01:09:15;;;;;;;2.60;1.50;;;23.20;56.50;;;;;;5052086;28;20538;-61
2022/08/22 01:12:12;;;;;;;2.67;1.70;;;23.20;56.50;;;;;;5054474;28;20174;-61
2022/08/22 01:14:38;;;;;;;2.05;1.58;;;23.20;56.50;;;;;;5058348;28;20270;-61
2022/08/22 01:17:35;;;;;;;4.18;1.50;;;23.20;56.50;;;;;;5058557;28;20254;-61
2022/08/22 01:20:04;;;;;;;2.38;1.58;;;23.20;56.50;;;;;;5057820;28;20171;-61
2022/08/22 01:22:39;;;;;;;2.03;1.70;;;23.20;56.50;;;;;;5059171;28;20181;-61
2022/08/22 01:25:17;;;;;;;3.10;1.55;;;23.20;56.50;;;;;;5057205;28;20209;-61
2022/08/22 01:28:04;;;;;;;2.55;1.52;;;23.20;57.20;;;;;;5059418;28;20197;-61
2022/08/22 01:30:57;;;;;;;2.10;1.40;;;23.20;56.60;;;;;;5057933;28;20676;-61
2022/08/22 01:34:05;;;;;;;2.22;1.58;;;23.20;56.60;;;;;;5057956;28;20171;-61
2022/08/22 01:36:42;;;;;;;1.88;1.40;;;23.20;56.60;;;;;;5048745;28;20187;-61
2022/08/22 01:39:24;;;;;;;2.70;1.90;;;23.20;56.60;;;;;;5058223;28;20167;-61
2022/08/22 01:42:27;;;;;;;1.83;1.60;;;23.20;56.60;;;;;;5058032;28;20175;-61
2022/08/22 01:45:11;;;;;;;1.55;1.30;;;23.20;56.60;;;;;;5058346;28;20184;-61
2022/08/22 01:47:39;;;;;;;2.40;1.90;;;23.20;56.70;;;;;;5058968;28;20699;-61
2022/08/22 01:50:21;;;;;;;2.30;1.52;;;23.20;56.60;;;;;;5058937;28;20219;-61
2022/08/22 01:53:06;;;;;;;3.20;1.60;;;23.20;56.70;;;;;;5056825;28;20672;-60
2022/08/22 01:55:38;;;;;;;5.18;2.03;;;23.20;56.80;;;;;;5058948;28;20178;-60
2022/08/22 01:58:14;;;;;;;2.35;1.20;;;23.20;56.70;;;;;;5058755;28;20252;-60
2022/08/22 02:01:16;;;;;;;2.72;1.55;;;23.20;56.80;;;;;;5058350;28;20224;-61
2022/08/22 02:04:06;;;;;;;1.90;1.58;;;23.10;56.70;;;;;;5036971;28;20603;-61
2022/08/22 02:06:57;;;;;;;1.40;1.23;;;23.20;56.80;;;;;;5057056;28;20529;-61
2022/08/22 02:09:22;;;;;;;1.95;1.60;;;23.10;56.70;;;;;;5058900;28;20413;-61
2022/08/22 02:11:57;;;;;;;3.72;1.85;;;23.20;56.80;;;;;;5058728;28;20717;-61
2022/08/22 02:14:31;;;;;;;1.60;1.50;;;23.10;56.80;;;;;;5056867;28;20179;-61
2022/08/22 02:17:06;;;;;;;4.18;2.10;;;23.20;56.80;;;;;;5058490;28;20171;-61
2022/08/22 02:19:45;;;;;;;2.33;1.65;;;23.20;56.80;;;;;;5057658;28;20261;-61
2022/08/22 02:22:36;;;;;;;3.88;1.73;;;23.10;56.80;;;;;;5056549;28;20175;-61
2022/08/22 02:25:11;;;;;;;2.78;1.70;;;23.20;56.90;;;;;;5052786;28;20187;-61
2022/08/22 02:27:42;;;;;;;2.83;1.80;;;23.10;56.90;;;;;;5054093;28;20171;-61
2022/08/22 02:30:16;;;;;;;2.30;1.50;;;23.10;56.90;;;;;;5054415;28;20576;-61
2022/08/22 02:32:57;;;;;;;1.83;1.60;;;23.10;56.80;;;;;;5053364;28;20229;-61
2022/08/22 02:35:46;;;;;;;2.30;1.60;;;23.10;56.90;;;;;;5053286;28;20413;-61
2022/08/22 02:38:26;;;;;;;1.65;1.55;;;23.10;56.90;;;;;;5054536;28;20183;-61
2022/08/22 02:41:02;;;;;;;2.85;1.60;;;23.10;56.90;;;;;;5052960;28;20183;-61
2022/08/22 02:43:50;;;;;;;2.63;1.58;;;23.10;56.90;;;;;;5052130;28;20174;-61
2022/08/22 02:46:48;;;;;;;2.40;2.00;;;23.10;56.90;;;;;;5052632;28;20175;-61
2022/08/22 02:49:27;;;;;;;1.63;1.20;;;23.10;56.90;;;;;;5052900;28;20667;-61
2022/08/22 02:52:01;;;;;;;2.15;1.60;;;23.10;56.90;;;;;;5052587;28;20179;-61
2022/08/22 02:54:34;;;;;;;2.97;1.50;;;23.10;57.00;;;;;;5052347;28;20252;-61
2022/08/22 02:57:03;;;;;;;2.42;1.60;;;23.10;57.00;;;;;;5053073;28;20214;-61
2022/08/22 02:59:34;;;;;;;3.80;1.60;;;23.10;57.60;;;;;;5052306;28;20172;-60
2022/08/22 03:02:26;;;;;;;2.97;2.05;;;23.10;56.90;;;;;;5053489;28;20617;-61
2022/08/22 03:04:58;;;;;;;1.60;1.30;;;23.10;57.00;;;;;;5052136;28;20229;-61
2022/08/22 03:07:30;;;;;;;1.85;1.45;;;23.10;57.00;;;;;;5053583;28;20238;-61
2022/08/22 03:10:12;;;;;;;2.42;1.70;;;23.10;57.00;;;;;;5051364;28;20213;-61
2022/08/22 03:12:40;;;;;;;1.80;1.60;;;23.10;57.00;;;;;;5052043;28;20675;-61
2022/08/22 03:15:35;;;;;;;2.05;1.80;;;23.10;57.00;;;;;;5051947;28;20628;-61
2022/08/22 03:18:13;;;;;;;2.25;1.35;;;23.10;57.00;;;;;;5051356;28;20182;-61
2022/08/22 03:20:58;;;;;;;1.90;1.52;;;23.10;57.00;;;;;;5052190;28;20190;-61
2022/08/22 03:23:35;;;;;;;1.88;1.45;;;23.10;57.00;;;;;;5051425;28;20174;-61
2022/08/22 03:26:16;;;;;;;1.65;1.52;;;23.10;57.10;;;;;;5053307;28;20186;-61
2022/08/22 03:28:55;;;;;;;1.85;1.52;;;23.00;57.00;;;;;;5052116;28;20312;-61
2022/08/22 03:31:22;;;;;;;3.38;1.40;;;23.10;57.10;;;;;;5051184;28;20646;-61
2022/08/22 03:34:14;;;;;;;3.38;1.90;;;23.10;57.80;;;;;;5051819;28;20211;-61
2022/08/22 03:36:39;;;;;;;2.05;1.50;;;23.10;57.10;;;;;;5050957;28;20202;-61
2022/08/22 03:39:10;;;;;;;2.20;1.55;;;23.10;57.20;;;;;;5050978;28;20548;-61
2022/08/22 03:42:01;;;;;;;1.60;1.50;;;23.10;57.20;;;;;;5052906;28;20183;-61
2022/08/22 03:44:34;;;;;;;2.70;1.40;;;23.10;57.10;;;;;;5051972;28;20179;-61
2022/08/22 03:47:20;;;;;;;2.03;1.50;;;23.10;57.20;;;;;;5051582;28;20175;-61
2022/08/22 03:49:53;;;;;;;1.52;1.33;;;23.10;57.20;;;;;;5051432;28;20276;-62
2022/08/22 03:53:06;;;;;;;1.73;1.52;;;23.00;57.10;;;;;;5052051;28;20258;-62
2022/08/22 03:55:40;;;;;;;2.90;1.60;;;23.10;57.20;;;;;;5052530;28;20527;-62
2022/08/22 03:58:26;;;;;;;1.77;1.65;;;23.10;57.20;;;;;;5051406;28;20179;-62
2022/08/22 04:01:13;;;;;;;2.60;1.60;;;23.00;57.20;;;;;;5050708;28;20171;-62
2022/08/22 04:03:45;;;;;;;1.95;1.55;;;23.00;57.20;;;;;;5051408;28;20175;-62
2022/08/22 04:06:41;;;;;;;2.55;1.58;;;23.00;57.20;;;;;;5051997;28;20297;-63
2022/08/22 04:09:24;;;;;;;1.55;1.42;;;23.00;57.20;;;;;;5052139;28;20658;-62
2022/08/22 04:12:17;;;;;;;2.13;1.70;;;23.00;57.20;;;;;;5051009;28;20178;-62
2022/08/22 04:14:59;;;;;;;3.35;1.55;;;23.00;57.30;;;;;;5050459;28;20226;-62
2022/08/22 04:17:39;;;;;;;2.08;1.60;;;23.00;57.30;;;;;;5051121;28;20225;-62
2022/08/22 04:20:08;;;;;;;2.65;1.75;;;23.00;57.30;;;;;;5051515;28;20183;-62
2022/08/22 04:22:48;;;;;;;3.25;1.42;;;23.00;57.30;;;;;;5051033;28;20571;-62
2022/08/22 04:25:18;;;;;;;2.53;1.55;;;23.00;57.30;;;;;;5052250;28;20181;-62
2022/08/22 04:27:59;;;;;;;2.05;1.48;;;23.00;57.30;;;;;;5051400;28;20258;-62
2022/08/22 04:30:55;;;;;;;2.63;1.58;;;23.00;57.30;;;;;;5050882;28;20539;-62
2022/08/22 04:33:25;;;;;;;2.78;1.77;;;23.00;57.30;;;;;;5051414;28;20266;-62
2022/08/22 04:35:56;;;;;;;2.35;1.70;;;23.00;57.30;;;;;;5050612;28;20185;-62
2022/08/22 04:38:43;;;;;;;2.35;1.77;;;23.00;57.30;;;;;;5051209;28;20583;-62
2022/08/22 04:41:33;;;;;;;1.85;1.58;;;23.00;57.30;;;;;;5051510;28;20187;-62
2022/08/22 04:44:04;;;;;;;2.28;1.80;;;23.00;57.30;;;;;;5051666;28;20178;-62
2022/08/22 04:46:50;;;;;;;1.85;1.45;;;23.00;57.30;;;;;;5051402;28;20254;-62
2022/08/22 04:49:19;;;;;;;3.70;1.90;;;23.00;57.30;;;;;;5051140;28;20258;-62
2022/08/22 04:51:51;;;;;;;2.45;1.45;;;23.00;57.40;;;;;;5051596;28;20417;-62
2022/08/22 04:54:49;;;;;;;2.13;1.92;;;23.00;57.40;;;;;;5051792;28;20179;-62
2022/08/22 04:57:21;;;;;;;2.30;1.50;;;23.00;57.30;;;;;;5044456;28;20236;-62
2022/08/22 04:59:48;;;;;;;1.98;1.55;;;23.00;57.40;;;;;;5051378;28;20502;-62
2022/08/22 05:02:23;;;;;;;2.40;1.50;;;23.00;57.40;;;;;;5051122;28;20171;-62
2022/08/22 05:05:00;;;;;;;2.13;1.70;;;23.00;57.40;;;;;;5052723;28;20225;-62
2022/08/22 05:07:37;;;;;;;2.88;2.15;;;23.00;57.40;;;;;;5051390;28;20230;-62
2022/08/22 05:10:29;;;;;;;3.13;1.80;;;23.00;57.40;;;;;;5050587;28;20585;-62
2022/08/22 05:13:02;;;;;;;2.90;1.90;;;23.00;57.50;;;;;;5051107;28;20186;-62
2022/08/22 05:15:39;;;;;;;2.05;1.40;;;23.00;57.50;;;;;;5051540;28;20236;-62
2022/08/22 05:18:39;;;;;;;2.55;1.75;;;23.00;57.50;;;;;;5050532;28;20198;-62
2022/08/22 05:21:06;;;;;;;3.33;1.73;;;23.00;57.50;;;;;;5029762;28;20240;-62
2022/08/22 05:23:43;;;;;;;2.60;1.75;;;23.00;57.50;;;;;;5050537;28;20632;-62
2022/08/22 05:26:09;;;;;;;2.58;1.63;;;23.00;57.50;;;;;;5051482;28;20187;-62
2022/08/22 05:28:39;;;;;;;2.35;1.92;;;23.00;57.50;;;;;;5051259;28;20179;-62
2022/08/22 05:31:07;;;;;;;1.90;1.77;;;23.00;57.50;;;;;;5050589;28;20215;-62
2022/08/22 05:33:37;;;;;;;1.83;1.45;;;23.00;58.20;;;;;;5051199;28;20182;-62
2022/08/22 05:36:07;;;;;;;2.40;1.90;;;23.00;57.50;;;;;;5052463;28;20175;-62
2022/08/22 05:38:42;;;;;;;2.03;1.65;;;23.00;57.50;;;;;;5050455;28;20171;-62
2022/08/22 05:41:10;;;;;;;2.50;1.63;;;23.00;57.50;;;;;;5050970;28;20261;-62
2022/08/22 05:43:38;;;;;;;3.13;1.90;;;23.00;57.60;;;;;;5052539;28;20233;-63
2022/08/22 05:46:05;;;;;;;2.20;1.52;;;23.00;57.60;;;;;;5051557;28;20194;-62
2022/08/22 05:48:39;;;;;;;2.17;1.67;;;23.00;57.50;;;;;;5051251;28;20184;-62
2022/08/22 05:51:13;;;;;;;3.20;1.80;;;23.00;57.50;;;;;;5050213;28;20295;-62
2022/08/22 05:53:41;;;;;;;2.28;1.55;;;23.00;57.60;;;;;;5051013;28;20641;-62
2022/08/22 05:56:14;;;;;;;3.05;1.67;;;23.00;57.60;;;;;;5051093;28;20202;-62
2022/08/22 05:58:52;;;;;;;2.58;1.58;;;23.00;57.60;;;;;;5051395;28;20175;-62
2022/08/22 06:01:31;;;;;;;1.80;1.63;;;23.00;57.50;;;;;;5054929;28;20175;-62
2022/08/22 06:04:03;;;;;;;3.08;1.48;;;23.00;57.50;;;;;;5054827;28;20179;-62
2022/08/22 06:06:29;;;;;;;2.40;1.75;;;23.00;57.50;;;;;;5053935;28;20536;-62
2022/08/22 06:09:02;;;;;;;2.80;1.70;;;23.00;57.60;;;;;;5054367;28;20643;-62
2022/08/22 06:11:47;;;;;;;2.05;1.60;;;23.00;57.60;;;;;;5054559;28;20265;-62
2022/08/22 06:14:36;;;;;;;2.03;1.77;;;23.00;57.60;;;;;;5053946;28;20262;-62
2022/08/22 06:17:21;;;;;;;3.10;1.70;;;23.00;57.60;;;;;;5054612;28;20236;-62
2022/08/22 06:19:48;;;;;;;2.95;1.48;;;23.00;57.60;;;;;;5053696;28;20163;-61
2022/08/22 06:22:14;;;;;;;2.28;1.58;;;23.00;57.60;;;;;;5054684;28;20175;-61
2022/08/22 06:24:40;;;;;;;1.70;1.30;;;23.00;57.60;;;;;;5055569;28;20175;-61
2022/08/22 06:27:12;;;;;;;2.92;1.67;;;23.00;57.60;;;;;;5053363;28;20528;-61
2022/08/22 06:29:51;;;;;;;2.05;1.42;;;23.00;57.60;;;;;;5054402;28;20253;-61
2022/08/22 06:32:21;;;;;;;3.03;1.67;;;23.00;57.60;;;;;;5054276;28;20187;-60
2022/08/22 06:34:46;;;;;;;2.45;1.65;;;23.00;57.60;;;;;;5053363;28;20258;-61
2022/08/22 06:37:17;;;;;;;2.00;1.42;;;23.00;57.60;;;;;;5054131;28;20206;-61
2022/08/22 06:39:43;;;;;;;2.47;1.75;;;23.00;57.60;;;;;;5054352;28;20183;-61
2022/08/22 06:42:29;;;;;;;1.98;1.48;;;23.00;57.70;;;;;;5054714;28;20175;-61
2022/08/22 06:45:04;;;;;;;7.80;2.20;;;23.00;57.60;;;;;;5053823;28;20179;-61
2022/08/22 06:47:32;;;;;;;4.05;1.70;;;23.00;57.60;;;;;;5053148;28;20182;-60
2022/08/22 06:50:07;;;;;;;2.72;1.90;;;23.00;57.60;;;;;;5053456;28;20210;-60
2022/08/22 06:52:44;;;;;;;4.38;2.15;;;23.10;57.60;;;;;;5053978;28;20244;-60
2022/08/22 06:55:09;;;;;;;4.03;1.80;;;23.00;57.60;;;;;;5053286;28;20269;-60
2022/08/22 06:57:41;;;;;;;4.05;2.03;;;23.10;57.70;;;;;;5054829;28;20983;-60
2022/08/22 07:00:10;;;;;;;3.70;1.73;;;23.10;57.70;;;;;;5053523;28;20182;-60
2022/08/22 07:02:40;;;;;;;2.70;1.70;;;23.10;57.80;;;;;;5052669;28;20626;-61
2022/08/22 07:05:07;;;;;;;7.28;2.28;;;23.10;57.80;;;;;;5053606;28;20179;-61
2022/08/22 07:07:32;;;;;;;5.78;1.90;;;23.10;57.80;;;;;;5053422;28;20238;-61
2022/08/22 07:09:58;;;;;;;3.28;1.98;;;23.10;57.80;;;;;;5052025;28;20207;-61
2022/08/22 07:12:29;;;;;;;4.25;2.00;;;23.10;57.70;;;;;;5053397;28;20174;-60
2022/08/22 07:14:58;;;;;;;3.85;1.92;;;23.10;57.80;;;;;;5053079;28;20199;-61
2022/08/22 07:17:26;;;;;;;3.58;2.00;;;23.10;57.70;;;;;;5052681;28;20225;-61
2022/08/22 07:19:58;;;;;;;4.00;1.90;;;23.10;57.70;;;;;;5054489;28;20625;-60
2022/08/22 07:22:29;;;;;;;3.88;1.90;;;23.10;57.60;;;;;;5054413;28;20182;-61
2022/08/22 07:25:09;;;;;;;3.45;1.70;;;23.10;57.60;;;;;;5054363;28;20270;-61
2022/08/22 07:27:38;;;;;;;3.85;1.88;;;23.10;57.60;;;;;;5053395;28;20175;-61
2022/08/22 07:30:11;;;;;;;2.80;2.05;;;23.20;57.70;;;;;;5053536;28;20221;-61
2022/08/22 07:32:59;;;;;;;6.95;2.10;;;23.10;57.60;;;;;;5053166;28;20179;-61
2022/08/22 07:35:28;;;;;;;3.70;1.70;;;23.10;57.70;;;;;;5052944;28;20194;-61
2022/08/22 07:38:33;;;;;;;2.60;1.90;;;23.20;57.70;;;;;;5052017;28;20171;-61
2022/08/22 07:41:08;;;;;;;4.07;2.08;;;23.20;57.70;;;;;;5052753;28;20269;-62
2022/08/22 07:43:47;;;;;;;3.40;1.70;;;23.20;57.70;;;;;;5052065;28;20645;-62
2022/08/22 07:46:34;;;;;;;2.00;1.80;;;23.20;57.70;;;;;;5052905;28;20178;-62
2022/08/22 07:49:07;;;;;;;5.97;2.03;;;23.20;57.70;;;;;;5052701;28;20175;-61
2022/08/22 07:51:35;;;;;;;2.58;1.75;;;23.20;57.60;;;;;;5051824;28;20210;-61
2022/08/22 07:54:04;;;;;;;2.80;1.90;;;23.20;57.50;;;;;;5052500;28;20617;-62
2022/08/22 07:56:37;;;;;;;3.17;2.03;;;23.30;57.50;;;;;;5052550;28;20203;-61
2022/08/22 07:59:09;;;;;;;2.53;1.75;;;23.30;57.50;;;;;;5052019;28;20202;-61
2022/08/22 08:01:34;;;;;;;3.75;1.98;;;23.30;57.60;;;;;;5053959;28;20185;-62
2022/08/22 08:04:07;;;;;;;1.95;1.58;;;23.30;57.60;;;;;;5052397;28;20348;-62
2022/08/22 08:06:32;;;;;;;2.85;1.80;;;23.40;57.60;;;;;;5051728;28;20182;-61
2022/08/22 08:08:58;;;;;;;3.60;1.80;;;23.40;57.50;;;;;;5052121;28;20234;-62
2022/08/22 08:11:25;;;;;;;2.35;1.83;;;23.40;57.50;;;;;;5053340;28;20673;-61
2022/08/22 08:13:53;;;;;;;4.13;1.80;;;23.50;57.40;;;;;;5051390;28;20172;-61
2022/08/22 08:16:23;;;;;;;3.60;1.75;;;23.50;57.40;;;;;;5052228;28;20175;-62
2022/08/22 08:18:49;;;;;;;3.35;1.67;;;23.40;57.50;;;;;;5051223;28;20171;-62
2022/08/22 08:21:26;;;;;;;2.00;1.55;;;23.40;57.50;;;;;;5051575;28;20183;-61
2022/08/22 08:23:52;;;;;;;3.78;1.98;;;23.40;57.60;;;;;;5052035;28;20178;-62
2022/08/22 08:26:20;;;;;;;3.28;1.65;;;23.40;57.50;;;;;;5051482;28;20179;-61
2022/08/22 08:28:49;;;;;;;3.28;1.70;;;23.40;57.50;;;;;;5051944;28;20179;-61
2022/08/22 08:31:19;;;;;;;1.77;1.40;;;23.50;57.50;;;;;;5052075;28;20219;-61
2022/08/22 08:33:46;;;;;;;2.67;1.70;;;23.50;57.50;;;;;;5051071;28;20780;-61
2022/08/22 08:36:23;;;;;;;2.55;1.70;;;23.50;57.50;;;;;;5051956;28;20281;-61
2022/08/22 08:38:58;;;;;;;2.10;1.70;;;23.50;57.40;;;;;;5051860;28;20182;-61
2022/08/22 08:41:37;;;;;;;2.08;1.70;;;23.50;57.50;;;;;;5051221;28;20273;-61
2022/08/22 08:44:40;;;;;;;3.13;1.60;;;23.50;57.40;;;;;;5051739;28;20183;-61
2022/08/22 08:47:14;;;;;;;1.77;1.45;;;23.60;57.50;;;;;;5052198;28;20179;-61
2022/08/22 08:50:16;;;;;;;2.85;1.77;;;23.60;57.40;;;;;;5051810;28;20239;-61
2022/08/22 08:53:00;;;;;;;3.97;2.33;;;23.60;57.50;;;;;;5051648;28;20290;-61
2022/08/22 08:55:43;;;;;;;3.25;1.90;;;23.60;57.40;;;;;;5052266;28;20170;-61
2022/08/22 08:58:24;;;;;;;1.95;1.77;;;23.60;57.40;;;;;;5052859;28;20330;-61
2022/08/22 09:00:52;;;;;;;3.88;2.10;;;23.60;57.40;;;;;;5051501;28;20174;-62
2022/08/22 09:03:45;;;;;;;2.67;1.67;;;23.70;57.40;;;;;;5052102;28;20186;-61
2022/08/22 09:06:23;;;;;;;3.40;1.73;;;23.70;57.30;;;;;;5052872;28;20179;-61
2022/08/22 09:09:09;;;;;;;2.88;1.65;;;23.70;57.40;;;;;;5050530;28;20219;-62
2022/08/22 09:12:00;;;;;;;2.63;1.70;;;23.60;57.40;;;;;;5051507;28;20214;-61
2022/08/22 09:14:40;;;;;;;3.20;1.63;;;23.70;57.50;;;;;;5052758;28;20202;-61
2022/08/22 09:17:27;;;;;;;3.60;2.28;;;23.70;57.50;;;;;;5050792;28;20175;-61
2022/08/22 09:20:15;;;;;;;3.80;1.75;;;23.70;57.50;;;;;;5052310;28;20205;-62
2022/08/22 09:23:18;;;;;;;2.53;1.80;;;23.70;57.50;;;;;;5050841;28;20182;-61
2022/08/22 09:26:02;;;;;;;4.15;1.88;;;23.70;57.50;;;;;;5052341;28;20224;-61
2022/08/22 09:28:47;;;;;;;2.53;1.83;;;23.70;57.50;;;;;;5051527;28;20198;-62
2022/08/22 09:31:32;;;;;;;3.00;2.10;;;23.70;57.50;;;;;;5050766;28;20347;-62
2022/08/22 09:34:02;;;;;;;2.50;1.70;;;23.70;57.50;;;;;;5054602;28;20301;-61
2022/08/22 09:36:57;;;;;;;3.58;1.83;;;23.70;57.50;;;;;;5055649;28;20656;-61
2022/08/22 09:39:32;;;;;;;3.13;2.00;;;23.70;57.40;;;;;;5055150;28;20637;-62
2022/08/22 09:41:59;;;;;;;2.70;1.90;;;23.80;57.30;;;;;;5055096;28;20258;-61
2022/08/22 09:44:28;;;;;;;1.80;1.70;;;23.90;57.30;;;;;;5054364;28;20349;-61
2022/08/22 09:47:20;;;;;;;3.97;1.90;;;23.90;57.20;;;;;;5054860;28;20203;-61
2022/08/22 09:50:09;;;;;;;2.58;1.50;;;24.00;57.20;;;;;;5049275;28;20234;-61
2022/08/22 09:53:09;;;;;;;1.88;1.67;;;24.00;57.10;;;;;;5056164;28;20179;-60
2022/08/22 09:55:50;;;;;;;3.67;2.10;;;24.10;57.00;;;;;;5055090;28;20208;-61
2022/08/22 09:58:32;;;;;;;2.72;2.17;;;24.10;56.90;;;;;;5054315;28;20179;-61
2022/08/22 10:01:01;;;;;;;2.67;1.98;;;24.10;56.90;;;;;;5054717;28;20179;-61
2022/08/22 10:03:52;;;;;;;2.67;1.80;;;24.00;57.30;;;;;;5054815;28;20181;-61
2022/08/22 10:06:24;;;;;;;2.40;1.90;;;24.00;57.10;;;;;;5055035;28;20321;-61
2022/08/22 10:09:21;;;;;;;2.25;1.65;;;24.00;57.10;;;;;;5054469;28;20280;-61
2022/08/22 10:12:02;;;;;;;2.83;1.90;;;24.00;57.10;;;;;;5053733;28;20195;-61
2022/08/22 10:15:01;;;;;;;3.22;1.65;;;24.00;57.10;;;;;;5054975;28;20262;-61
2022/08/22 10:17:53;;;;;;;2.47;1.83;;;24.10;57.00;;;;;;5055815;28;20167;-60
2022/08/22 10:20:23;;;;;;;2.70;1.60;;;24.20;57.00;;;;;;5054735;28;20186;-62
2022/08/22 10:23:07;;;;;;;3.20;1.67;;;24.20;57.10;;;;;;5054055;28;20175;-61
2022/08/22 10:25:37;;;;;;;4.90;1.50;;;24.20;57.20;;;;;;5054718;28;20534;-61
2022/08/22 10:28:17;;;;;;;3.03;1.40;;;24.20;57.30;;;;;;5055402;28;20179;-61
2022/08/22 10:31:03;;;;;;;2.80;1.67;;;24.20;57.30;;;;;;5055404;28;20203;-61
2022/08/22 10:33:47;;;;;;;2.97;1.70;;;24.20;57.30;;;;;;5053669;28;20179;-62
2022/08/22 10:36:18;;;;;;;5.05;1.70;;;24.20;57.30;;;;;;5054271;28;20642;-62
2022/08/22 10:38:46;;;;;;;5.30;2.03;;;24.20;57.30;;;;;;5053882;28;20186;-62
2022/08/22 10:41:26;;;;;;;2.45;1.80;;;24.20;57.50;;;;;;5054465;28;20558;-61
2022/08/22 10:43:59;;;;;;;3.88;1.40;;;24.20;57.40;;;;;;5053110;28;20641;-61
2022/08/22 10:46:35;;;;;;;6.30;2.20;;;24.20;57.40;;;;;;5053260;28;20630;-61
2022/08/22 10:49:01;;;;;;;5.38;1.88;;;24.20;57.40;;;;;;5054967;28;20254;-61
2022/08/22 10:51:51;;;;;;;3.55;1.98;;;24.30;57.50;;;;;;5054884;28;20222;-61
2022/08/22 10:54:37;;;;;;;5.78;2.05;;;24.30;57.50;;;;;;5054479;28;20167;-61
2022/08/22 10:57:06;;;;;;;5.55;2.25;;;24.20;57.30;;;;;;5053821;28;20640;-61
2022/08/22 10:59:44;;;;;;;3.85;2.20;;;24.20;57.30;;;;;;5054916;28;20167;-61
2022/08/22 11:02:18;;;;;;;4.93;2.42;;;24.20;57.30;;;;;;5053168;28;20225;-62
2022/08/22 11:05:12;;;;;;;5.32;2.28;;;24.20;57.30;;;;;;5053739;28;20182;-62
2022/08/22 11:07:47;;;;;;;4.75;2.10;;;24.20;57.30;;;;;;5052821;28;20222;-61
2022/08/22 11:10:39;;;;;;;4.53;2.10;;;24.20;57.30;;;;;;5054523;28;20209;-61
2022/08/22 11:13:38;;;;;;;5.60;2.42;;;24.30;57.30;;;;;;5053715;28;20179;-62
2022/08/22 11:16:11;;;;;;;4.82;1.80;;;24.30;57.40;;;;;;5053631;28;20641;-62
2022/08/22 11:18:58;;;;;;;9.00;2.00;;;24.30;57.30;;;;;;5053319;28;20175;-62
2022/08/22 11:21:49;;;;;;;4.53;1.90;;;24.30;57.30;;;;;;5054332;28;20183;-62
2022/08/22 11:24:44;;;;;;;5.20;1.63;;;24.30;57.20;;;;;;5054431;28;20638;-61
2022/08/22 11:27:37;;;;;;;3.53;1.70;;;24.40;57.30;;;;;;5052252;28;20187;-61
2022/08/22 11:30:07;;;;;;;4.60;1.73;;;24.40;57.20;;;;;;5052451;28;20211;-61
2022/08/22 11:33:01;;;;;;;5.72;2.22;;;24.40;57.10;;;;;;5053064;28;20178;-61
2022/08/22 11:35:38;;;;;;;4.43;2.10;;;24.40;57.20;;;;;;5053977;28;20294;-61
2022/08/22 11:38:13;;;;;;;5.00;1.83;;;24.50;57.10;;;;;;5053042;28;20256;-61
2022/08/22 11:40:49;;;;;;;5.28;1.95;;;24.50;57.00;;;;;;5052916;28;20193;-61
2022/08/22 11:43:26;;;;;;;5.82;2.17;;;24.50;57.00;;;;;;5052325;28;20170;-61
2022/08/22 11:45:55;;;;;;;6.75;2.00;;;24.50;56.90;;;;;;5053753;28;20175;-61
2022/08/22 11:48:25;;;;;;;4.25;2.05;;;24.50;56.90;;;;;;5052924;28;20171;-60
2022/08/22 11:51:11;;;;;;;3.83;1.83;;;24.50;56.80;;;;;;5051861;28;20250;-59
2022/08/22 11:53:39;;;;;;;3.50;1.73;;;24.60;56.80;;;;;;5052918;28;20182;-61
2022/08/22 11:56:18;;;;;;;5.03;2.15;;;24.60;56.60;;;;;;5055134;28;20518;-59
2022/08/22 11:58:48;;;;;;;4.72;2.35;;;24.60;56.50;;;;;;5057693;28;20162;-60
2022/08/22 12:01:15;;;;;;;2.17;1.50;;;24.70;56.50;;;;;;5057349;28;20182;-59
2022/08/22 12:04:05;;;;;;;5.40;2.03;;;24.70;56.50;;;;;;5053363;28;20178;-62
2022/08/22 12:06:50;;;;;;;4.10;1.85;;;24.70;56.50;;;;;;5073502;28;20257;-61
2022/08/22 12:09:34;;;;;;;4.20;1.75;;;24.60;56.50;;;;;;5073791;28;20190;-61
2022/08/22 12:12:25;;;;;;;3.45;1.65;;;24.60;56.60;;;;;;5072748;28;20201;-62
2022/08/22 12:15:09;;;;;;;3.15;1.60;;;24.60;56.60;;;;;;5032030;28;20230;-62
2022/08/22 12:17:57;;;;;;;3.30;1.90;;;24.50;56.60;;;;;;5033530;28;20172;-60
2022/08/22 12:20:44;;;;;;;3.45;1.98;;;24.60;56.50;;;;;;5033558;28;20183;-60
2022/08/22 12:23:27;;;;;;;4.20;1.88;;;24.60;56.40;;;;;;5032180;28;20230;-61
2022/08/22 12:26:02;;;;;;;3.22;1.67;;;24.60;56.40;;;;;;5032468;28;20652;-61
2022/08/22 12:28:27;;;;;;;4.07;1.77;;;24.60;56.30;;;;;;5032022;28;20594;-61
2022/08/22 12:31:01;;;;;;;3.78;2.10;;;24.60;56.30;;;;;;5061325;28;20202;-61
2022/08/22 12:33:41;;;;;;;5.13;1.95;;;24.60;56.30;;;;;;5071087;28;20629;-60
2022/08/22 12:36:25;;;;;;;4.05;2.15;;;24.50;56.20;;;;;;5072830;28;20182;-61
2022/08/22 12:39:12;;;;;;;4.28;2.15;;;24.60;56.20;;;;;;5071856;28;20177;-61
2022/08/22 12:41:41;;;;;;;3.80;1.88;;;24.50;56.10;;;;;;5073068;28;20174;-61
2022/08/22 12:44:25;;;;;;;5.40;2.00;;;24.50;56.20;;;;;;5072936;28;20167;-61
2022/08/22 12:47:05;;;;;;;3.38;1.80;;;24.50;56.00;;;;;;5072300;28;20306;-61
2022/08/22 12:50:16;;;;;;;6.25;2.25;;;24.40;56.00;;;;;;5072892;28;20243;-61
2022/08/22 12:53:17;;;;;;;5.40;2.05;;;24.50;55.80;;;;;;5062930;28;20193;-60
2022/08/22 12:56:09;;;;;;;3.30;1.70;;;24.40;55.70;;;;;;5073044;28;20166;-60
2022/08/22 12:58:44;;;;;;;4.55;2.10;;;24.40;55.90;;;;;;5072767;28;20174;-60
2022/08/22 13:01:10;;;;;;;6.78;2.20;;;24.50;55.90;;;;;;5054898;28;20170;-60
2022/08/22 13:03:51;;;;;;;5.30;1.85;;;24.50;55.90;;;;;;5052407;28;20181;-60
2022/08/22 13:06:32;;;;;;;5.18;2.13;;;24.50;55.80;;;;;;5035150;28;20190;-58
2022/08/22 13:08:58;;;;;;;7.20;2.47;;;24.50;55.70;;;;;;5051077;28;20211;-60
2022/08/22 13:11:23;;;;;;;6.13;2.08;;;24.50;55.70;;;;;;5051236;28;20221;-60
2022/08/22 13:13:57;;;;;;;3.00;2.17;;;24.50;55.40;;;;;;5034786;28;20174;-60
2022/08/22 13:16:23;;;;;;;4.43;2.22;;;24.50;55.30;;;;;;5050915;28;20175;-60
2022/08/22 13:18:52;;;;;;;3.22;1.95;;;24.60;55.40;;;;;;5051205;28;20182;-60
2022/08/22 13:21:21;;;;;;;5.22;2.20;;;24.60;55.30;;;;;;5050735;28;20202;-60
2022/08/22 13:23:52;;;;;;;6.57;2.42;;;24.60;55.20;;;;;;5050891;28;20171;-60
2022/08/22 13:26:18;;;;;;;3.67;2.00;;;24.60;55.20;;;;;;5035105;28;20179;-60
2022/08/22 13:28:53;;;;;;;3.97;2.20;;;24.60;55.10;;;;;;5051553;28;20246;-60
2022/08/22 13:31:23;;;;;;;5.45;2.17;;;24.60;55.70;;;;;;5051234;28;20214;-60
2022/08/22 13:33:49;;;;;;;2.65;1.60;;;24.60;55.00;;;;;;5052289;28;20179;-60
2022/08/22 13:36:17;;;;;;;3.42;2.20;;;24.60;54.90;;;;;;5033893;28;20179;-60
2022/08/22 13:38:47;;;;;;;3.78;2.00;;;24.60;54.80;;;;;;5051338;28;20178;-60
2022/08/22 13:41:20;;;;;;;3.50;2.33;;;24.60;54.80;;;;;;5051236;28;20206;-61
2022/08/22 13:43:56;;;;;;;3.97;1.95;;;24.60;54.70;;;;;;5050416;28;20265;-61
2022/08/22 13:46:24;;;;;;;5.22;2.10;;;24.60;54.60;;;;;;5051020;28;20591;-61